sensor_id;sensor_type;location;lat;lon;timestamp;temperature;humidity
79760;DHT22;69248;42.138;24.742;2023-04-29T00:01:36;11.20;58.50
79760;DHT22;69248;42.138;24.742;2023-04-29T00:04:04;11.10;59.10
79760;DHT22;69248;42.138;24.742;2023-04-29T00:06:31;11.10;59.20
79760;DHT22;69248;42.138;24.742;2023-04-29T00:08:59;11.10;59.20
79760;DHT22;69248;42.138;24.742;2023-04-29T00:11:27;11.10;59.60
79760;DHT22;69248;42.138;24.742;2023-04-29T00:13:54;11.00;59.60
79760;DHT22;69248;42.138;24.742;2023-04-29T00:16:22;11.00;59.80
79760;DHT22;69248;42.138;24.742;2023-04-29T00:18:49;11.00;59.80
79760;DHT22;69248;42.138;24.742;2023-04-29T00:21:17;10.90;60.00
79760;DHT22;69248;42.138;24.742;2023-04-29T00:23:44;10.90;60.50
79760;DHT22;69248;42.138;24.742;2023-04-29T00:26:12;10.80;60.60
79760;DHT22;69248;42.138;24.742;2023-04-29T00:28:40;10.80;60.60
79760;DHT22;69248;42.138;24.742;2023-04-29T00:31:07;10.70;61.20
79760;DHT22;69248;42.138;24.742;2023-04-29T00:33:35;10.60;61.50
79760;DHT22;69248;42.138;24.742;2023-04-29T00:36:02;10.50;61.70
79760;DHT22;69248;42.138;24.742;2023-04-29T00:38:30;10.40;62.00
79760;DHT22;69248;42.138;24.742;2023-04-29T00:40:58;10.40;62.40
79760;DHT22;69248;42.138;24.742;2023-04-29T00:43:26;10.40;62.60
79760;DHT22;69248;42.138;24.742;2023-04-29T00:45:53;10.40;62.50
79760;DHT22;69248;42.138;24.742;2023-04-29T00:48:21;10.40;62.80
79760;DHT22;69248;42.138;24.742;2023-04-29T00:50:48;10.30;62.60
79760;DHT22;69248;42.138;24.742;2023-04-29T00:53:16;10.30;63.40
79760;DHT22;69248;42.138;24.742;2023-04-29T00:55:45;10.30;62.50
79760;DHT22;69248;42.138;24.742;2023-04-29T00:58:14;10.30;62.80
79760;DHT22;69248;42.138;24.742;2023-04-29T01:00:43;10.20;63.50
79760;DHT22;69248;42.138;24.742;2023-04-29T01:03:12;10.10;63.60
79760;DHT22;69248;42.138;24.742;2023-04-29T01:05:40;10.10;63.80
79760;DHT22;69248;42.138;24.742;2023-04-29T01:08:43;10.10;63.70
79760;DHT22;69248;42.138;24.742;2023-04-29T01:16:33;10.20;63.30
79760;DHT22;69248;42.138;24.742;2023-04-29T01:19:01;10.20;63.30
79760;DHT22;69248;42.138;24.742;2023-04-29T01:21:29;10.20;63.80
79760;DHT22;69248;42.138;24.742;2023-04-29T01:23:57;10.20;63.70
79760;DHT22;69248;42.138;24.742;2023-04-29T01:26:25;10.10;63.90
79760;DHT22;69248;42.138;24.742;2023-04-29T01:42:35;9.60;64.80
79760;DHT22;69248;42.138;24.742;2023-04-29T01:45:05;9.50;65.10
79760;DHT22;69248;42.138;24.742;2023-04-29T01:47:33;9.50;65.50
79760;DHT22;69248;42.138;24.742;2023-04-29T01:50:02;9.50;65.80
79760;DHT22;69248;42.138;24.742;2023-04-29T01:52:30;9.40;65.90
79760;DHT22;69248;42.138;24.742;2023-04-29T01:54:57;9.40;65.90
79760;DHT22;69248;42.138;24.742;2023-04-29T01:57:25;9.50;65.70
79760;DHT22;69248;42.138;24.742;2023-04-29T01:59:52;9.50;66.00
79760;DHT22;69248;42.138;24.742;2023-04-29T02:02:20;9.50;65.90
79760;DHT22;69248;42.138;24.742;2023-04-29T02:04:48;9.50;66.00
79760;DHT22;69248;42.138;24.742;2023-04-29T02:07:16;9.40;66.10
79760;DHT22;69248;42.138;24.742;2023-04-29T02:09:44;9.50;66.20
79760;DHT22;69248;42.138;24.742;2023-04-29T02:12:11;9.40;66.00
79760;DHT22;69248;42.138;24.742;2023-04-29T02:14:39;9.40;66.00
79760;DHT22;69248;42.138;24.742;2023-04-29T02:17:06;9.30;66.20
79760;DHT22;69248;42.138;24.742;2023-04-29T02:19:34;9.30;66.30
79760;DHT22;69248;42.138;24.742;2023-04-29T02:22:01;9.20;66.20
79760;DHT22;69248;42.138;24.742;2023-04-29T02:24:29;9.10;66.40
79760;DHT22;69248;42.138;24.742;2023-04-29T02:26:56;9.00;66.90
79760;DHT22;69248;42.138;24.742;2023-04-29T02:29:25;9.00;67.00
79760;DHT22;69248;42.138;24.742;2023-04-29T02:31:54;8.90;67.00
79760;DHT22;69248;42.138;24.742;2023-04-29T02:34:22;8.80;67.60
79760;DHT22;69248;42.138;24.742;2023-04-29T02:36:49;8.80;67.70
79760;DHT22;69248;42.138;24.742;2023-04-29T02:39:17;8.80;67.60
79760;DHT22;69248;42.138;24.742;2023-04-29T02:41:46;8.80;67.60
79760;DHT22;69248;42.138;24.742;2023-04-29T02:44:13;8.80;67.30
79760;DHT22;69248;42.138;24.742;2023-04-29T02:46:41;8.90;67.20
79760;DHT22;69248;42.138;24.742;2023-04-29T02:49:11;8.90;67.10
79760;DHT22;69248;42.138;24.742;2023-04-29T02:51:39;8.90;67.00
79760;DHT22;69248;42.138;24.742;2023-04-29T02:54:07;8.90;67.00
79760;DHT22;69248;42.138;24.742;2023-04-29T02:56:36;9.00;67.00
79760;DHT22;69248;42.138;24.742;2023-04-29T02:59:04;8.90;67.00
79760;DHT22;69248;42.138;24.742;2023-04-29T03:01:31;8.90;67.50
79760;DHT22;69248;42.138;24.742;2023-04-29T03:03:59;8.80;67.60
79760;DHT22;69248;42.138;24.742;2023-04-29T03:06:26;8.80;67.70
79760;DHT22;69248;42.138;24.742;2023-04-29T03:08:54;8.80;67.90
79760;DHT22;69248;42.138;24.742;2023-04-29T03:11:22;8.70;68.30
79760;DHT22;69248;42.138;24.742;2023-04-29T03:13:53;8.70;68.70
79760;DHT22;69248;42.138;24.742;2023-04-29T03:16:20;8.70;68.70
79760;DHT22;69248;42.138;24.742;2023-04-29T03:18:48;8.60;69.00
79760;DHT22;69248;42.138;24.742;2023-04-29T03:21:16;8.50;69.20
79760;DHT22;69248;42.138;24.742;2023-04-29T03:23:44;8.50;69.40
79760;DHT22;69248;42.138;24.742;2023-04-29T03:26:11;8.60;69.40
79760;DHT22;69248;42.138;24.742;2023-04-29T03:28:39;8.60;69.20
79760;DHT22;69248;42.138;24.742;2023-04-29T03:31:07;8.70;68.70
79760;DHT22;69248;42.138;24.742;2023-04-29T03:33:36;8.70;68.70
79760;DHT22;69248;42.138;24.742;2023-04-29T03:36:04;8.70;68.50
79760;DHT22;69248;42.138;24.742;2023-04-29T03:38:31;8.70;68.70
79760;DHT22;69248;42.138;24.742;2023-04-29T03:40:59;8.60;68.60
79760;DHT22;69248;42.138;24.742;2023-04-29T03:43:26;8.60;68.80
79760;DHT22;69248;42.138;24.742;2023-04-29T03:45:54;8.70;68.00
79760;DHT22;69248;42.138;24.742;2023-04-29T03:48:21;8.80;67.50
79760;DHT22;69248;42.138;24.742;2023-04-29T03:50:49;8.80;66.80
79760;DHT22;69248;42.138;24.742;2023-04-29T03:53:16;8.90;66.40
79760;DHT22;69248;42.138;24.742;2023-04-29T03:55:44;9.00;65.90
79760;DHT22;69248;42.138;24.742;2023-04-29T03:58:12;9.10;65.70
79760;DHT22;69248;42.138;24.742;2023-04-29T04:00:40;9.20;65.50
79760;DHT22;69248;42.138;24.742;2023-04-29T04:03:07;9.30;65.20
79760;DHT22;69248;42.138;24.742;2023-04-29T04:05:35;9.30;64.70
79760;DHT22;69248;42.138;24.742;2023-04-29T04:08:02;9.40;64.20
79760;DHT22;69248;42.138;24.742;2023-04-29T04:10:30;9.40;63.70
79760;DHT22;69248;42.138;24.742;2023-04-29T04:12:57;9.50;63.60
79760;DHT22;69248;42.138;24.742;2023-04-29T04:15:25;9.60;63.40
79760;DHT22;69248;42.138;24.742;2023-04-29T04:17:52;9.60;63.10
79760;DHT22;69248;42.138;24.742;2023-04-29T04:20:20;9.70;62.40
79760;DHT22;69248;42.138;24.742;2023-04-29T04:22:47;9.70;62.50
79760;DHT22;69248;42.138;24.742;2023-04-29T04:25:15;9.80;62.40
79760;DHT22;69248;42.138;24.742;2023-04-29T04:27:42;9.80;61.80
79760;DHT22;69248;42.138;24.742;2023-04-29T04:30:11;9.90;61.50
79760;DHT22;69248;42.138;24.742;2023-04-29T04:32:38;9.90;61.50
79760;DHT22;69248;42.138;24.742;2023-04-29T04:35:06;9.90;61.30
79760;DHT22;69248;42.138;24.742;2023-04-29T04:37:34;9.90;61.30
79760;DHT22;69248;42.138;24.742;2023-04-29T04:40:02;10.00;61.30
79760;DHT22;69248;42.138;24.742;2023-04-29T04:42:29;10.10;60.50
79760;DHT22;69248;42.138;24.742;2023-04-29T04:44:57;10.10;59.90
79760;DHT22;69248;42.138;24.742;2023-04-29T04:47:24;10.00;59.50
79760;DHT22;69248;42.138;24.742;2023-04-29T04:49:52;9.90;60.90
79760;DHT22;69248;42.138;24.742;2023-04-29T04:52:20;9.90;61.30
79760;DHT22;69248;42.138;24.742;2023-04-29T04:54:48;10.00;61.30
79760;DHT22;69248;42.138;24.742;2023-04-29T04:57:15;10.00;61.20
79760;DHT22;69248;42.138;24.742;2023-04-29T04:59:43;10.00;60.90
79760;DHT22;69248;42.138;24.742;2023-04-29T05:02:10;9.90;61.60
79760;DHT22;69248;42.138;24.742;2023-04-29T05:04:44;9.90;62.20
79760;DHT22;69248;42.138;24.742;2023-04-29T05:07:12;9.90;62.30
79760;DHT22;69248;42.138;24.742;2023-04-29T05:09:39;9.90;62.20
79760;DHT22;69248;42.138;24.742;2023-04-29T05:12:07;9.90;62.40
79760;DHT22;69248;42.138;24.742;2023-04-29T05:14:34;9.80;62.80
79760;DHT22;69248;42.138;24.742;2023-04-29T05:17:02;9.80;62.50
79760;DHT22;69248;42.138;24.742;2023-04-29T05:19:30;10.00;62.40
79760;DHT22;69248;42.138;24.742;2023-04-29T05:21:57;10.00;62.00
79760;DHT22;69248;42.138;24.742;2023-04-29T05:24:25;10.10;62.10
79760;DHT22;69248;42.138;24.742;2023-04-29T05:26:52;10.10;61.90
79760;DHT22;69248;42.138;24.742;2023-04-29T05:29:20;10.20;61.90
79760;DHT22;69248;42.138;24.742;2023-04-29T05:31:47;10.20;61.50
79760;DHT22;69248;42.138;24.742;2023-04-29T05:34:15;10.40;61.00
79760;DHT22;69248;42.138;24.742;2023-04-29T05:36:43;10.40;60.40
79760;DHT22;69248;42.138;24.742;2023-04-29T05:39:10;10.50;59.70
79760;DHT22;69248;42.138;24.742;2023-04-29T05:41:38;10.50;59.20
79760;DHT22;69248;42.138;24.742;2023-04-29T05:44:05;10.50;59.30
79760;DHT22;69248;42.138;24.742;2023-04-29T05:46:33;10.60;58.80
79760;DHT22;69248;42.138;24.742;2023-04-29T05:49:01;10.70;58.90
79760;DHT22;69248;42.138;24.742;2023-04-29T05:51:28;10.90;58.10
79760;DHT22;69248;42.138;24.742;2023-04-29T05:53:57;11.20;57.60
79760;DHT22;69248;42.138;24.742;2023-04-29T05:56:26;11.50;56.80
79760;DHT22;69248;42.138;24.742;2023-04-29T05:58:53;11.80;56.00
79760;DHT22;69248;42.138;24.742;2023-04-29T06:01:21;12.10;55.10
79760;DHT22;69248;42.138;24.742;2023-04-29T06:03:48;12.30;54.20
79760;DHT22;69248;42.138;24.742;2023-04-29T06:06:16;12.40;53.50
79760;DHT22;69248;42.138;24.742;2023-04-29T06:08:44;12.50;53.00
79760;DHT22;69248;42.138;24.742;2023-04-29T06:11:11;12.50;52.80
79760;DHT22;69248;42.138;24.742;2023-04-29T06:13:40;12.50;53.50
79760;DHT22;69248;42.138;24.742;2023-04-29T06:16:07;12.80;53.20
79760;DHT22;69248;42.138;24.742;2023-04-29T06:18:36;13.10;52.10
79760;DHT22;69248;42.138;24.742;2023-04-29T06:21:03;13.20;51.70
79760;DHT22;69248;42.138;24.742;2023-04-29T06:23:31;13.40;50.90
79760;DHT22;69248;42.138;24.742;2023-04-29T06:25:59;13.50;50.60
79760;DHT22;69248;42.138;24.742;2023-04-29T06:28:26;13.50;50.80
79760;DHT22;69248;42.138;24.742;2023-04-29T06:30:55;13.50;50.80
79760;DHT22;69248;42.138;24.742;2023-04-29T06:33:23;13.40;50.50
79760;DHT22;69248;42.138;24.742;2023-04-29T06:35:50;13.30;51.00
79760;DHT22;69248;42.138;24.742;2023-04-29T06:38:18;13.30;52.10
79760;DHT22;69248;42.138;24.742;2023-04-29T06:40:45;13.40;51.20
79760;DHT22;69248;42.138;24.742;2023-04-29T06:43:13;13.30;51.20
79760;DHT22;69248;42.138;24.742;2023-04-29T06:45:40;13.10;52.30
79760;DHT22;69248;42.138;24.742;2023-04-29T06:48:08;12.90;52.60
79760;DHT22;69248;42.138;24.742;2023-04-29T06:50:35;12.80;51.90
79760;DHT22;69248;42.138;24.742;2023-04-29T06:53:03;12.80;51.40
79760;DHT22;69248;42.138;24.742;2023-04-29T06:55:31;13.00;51.50
79760;DHT22;69248;42.138;24.742;2023-04-29T06:57:58;13.20;50.30
79760;DHT22;69248;42.138;24.742;2023-04-29T07:00:26;13.50;50.60
79760;DHT22;69248;42.138;24.742;2023-04-29T07:02:53;13.90;50.20
79760;DHT22;69248;42.138;24.742;2023-04-29T07:05:21;14.20;49.10
79760;DHT22;69248;42.138;24.742;2023-04-29T07:07:49;14.30;48.40
79760;DHT22;69248;42.138;24.742;2023-04-29T07:10:17;14.50;47.70
79760;DHT22;69248;42.138;24.742;2023-04-29T07:12:44;14.70;46.90
79760;DHT22;69248;42.138;24.742;2023-04-29T07:15:12;14.90;46.50
79760;DHT22;69248;42.138;24.742;2023-04-29T07:17:39;15.10;45.70
79760;DHT22;69248;42.138;24.742;2023-04-29T07:20:08;15.20;45.40
79760;DHT22;69248;42.138;24.742;2023-04-29T07:22:35;15.30;44.70
79760;DHT22;69248;42.138;24.742;2023-04-29T07:25:03;15.40;44.80
79760;DHT22;69248;42.138;24.742;2023-04-29T07:27:32;15.60;44.00
79760;DHT22;69248;42.138;24.742;2023-04-29T07:30:01;15.70;42.50
79760;DHT22;69248;42.138;24.742;2023-04-29T07:32:29;15.70;43.10
79760;DHT22;69248;42.138;24.742;2023-04-29T07:34:59;15.80;43.30
79760;DHT22;69248;42.138;24.742;2023-04-29T07:37:27;15.90;44.00
79760;DHT22;69248;42.138;24.742;2023-04-29T07:39:54;15.90;43.20
79760;DHT22;69248;42.138;24.742;2023-04-29T07:42:22;16.00;42.70
79760;DHT22;69248;42.138;24.742;2023-04-29T07:44:49;16.00;42.50
79760;DHT22;69248;42.138;24.742;2023-04-29T07:47:17;15.70;43.00
79760;DHT22;69248;42.138;24.742;2023-04-29T07:49:44;15.60;43.60
79760;DHT22;69248;42.138;24.742;2023-04-29T07:52:12;15.60;43.60
79760;DHT22;69248;42.138;24.742;2023-04-29T07:54:39;15.70;43.60
79760;DHT22;69248;42.138;24.742;2023-04-29T07:57:07;15.60;43.70
79760;DHT22;69248;42.138;24.742;2023-04-29T07:59:34;15.70;43.60
79760;DHT22;69248;42.138;24.742;2023-04-29T08:02:02;15.70;43.40
79760;DHT22;69248;42.138;24.742;2023-04-29T08:04:30;15.80;43.10
79760;DHT22;69248;42.138;24.742;2023-04-29T08:06:57;15.90;42.90
79760;DHT22;69248;42.138;24.742;2023-04-29T08:09:25;16.00;42.70
79760;DHT22;69248;42.138;24.742;2023-04-29T08:11:52;16.20;42.30
79760;DHT22;69248;42.138;24.742;2023-04-29T08:14:20;16.30;41.90
79760;DHT22;69248;42.138;24.742;2023-04-29T08:16:47;16.50;41.90
79760;DHT22;69248;42.138;24.742;2023-04-29T08:19:15;16.70;42.00
79760;DHT22;69248;42.138;24.742;2023-04-29T08:21:42;16.90;41.20
79760;DHT22;69248;42.138;24.742;2023-04-29T08:24:10;17.10;40.00
79760;DHT22;69248;42.138;24.742;2023-04-29T08:26:39;17.20;39.40
79760;DHT22;69248;42.138;24.742;2023-04-29T08:29:08;17.40;39.70
79760;DHT22;69248;42.138;24.742;2023-04-29T08:31:35;17.40;39.30
79760;DHT22;69248;42.138;24.742;2023-04-29T08:34:03;17.40;39.40
79760;DHT22;69248;42.138;24.742;2023-04-29T08:36:30;17.30;39.00
79760;DHT22;69248;42.138;24.742;2023-04-29T08:38:58;17.50;39.00
79760;DHT22;69248;42.138;24.742;2023-04-29T08:41:25;17.60;39.10
79760;DHT22;69248;42.138;24.742;2023-04-29T08:43:53;17.60;38.40
79760;DHT22;69248;42.138;24.742;2023-04-29T08:46:23;17.70;38.10
79760;DHT22;69248;42.138;24.742;2023-04-29T08:48:52;18.00;37.50
79760;DHT22;69248;42.138;24.742;2023-04-29T08:51:21;18.00;37.20
79760;DHT22;69248;42.138;24.742;2023-04-29T08:53:49;18.20;37.00
79760;DHT22;69248;42.138;24.742;2023-04-29T08:56:17;18.30;37.20
79760;DHT22;69248;42.138;24.742;2023-04-29T08:58:51;18.30;36.50
79760;DHT22;69248;42.138;24.742;2023-04-29T09:01:26;18.40;36.80
79760;DHT22;69248;42.138;24.742;2023-04-29T09:04:00;18.60;36.60
79760;DHT22;69248;42.138;24.742;2023-04-29T09:06:24;18.60;35.50
79760;DHT22;69248;42.138;24.742;2023-04-29T09:08:52;18.70;35.40
79760;DHT22;69248;42.138;24.742;2023-04-29T09:11:20;18.70;35.30
79760;DHT22;69248;42.138;24.742;2023-04-29T09:13:48;18.90;35.80
79760;DHT22;69248;42.138;24.742;2023-04-29T09:16:16;19.00;35.20
79760;DHT22;69248;42.138;24.742;2023-04-29T09:18:49;19.30;34.40
79760;DHT22;69248;42.138;24.742;2023-04-29T09:21:19;19.40;33.40
79760;DHT22;69248;42.138;24.742;2023-04-29T09:23:53;19.40;33.20
79760;DHT22;69248;42.138;24.742;2023-04-29T09:26:17;19.40;33.50
79760;DHT22;69248;42.138;24.742;2023-04-29T09:28:44;19.40;33.20
79760;DHT22;69248;42.138;24.742;2023-04-29T09:31:13;19.50;31.90
79760;DHT22;69248;42.138;24.742;2023-04-29T09:33:54;19.40;32.00
79760;DHT22;69248;42.138;24.742;2023-04-29T09:36:46;19.20;32.40
79760;DHT22;69248;42.138;24.742;2023-04-29T09:39:22;19.30;31.60
79760;DHT22;69248;42.138;24.742;2023-04-29T09:44:30;19.70;31.60
79760;DHT22;69248;42.138;24.742;2023-04-29T09:47:03;19.90;31.80
79760;DHT22;69248;42.138;24.742;2023-04-29T09:49:39;20.10;31.70
79760;DHT22;69248;42.138;24.742;2023-04-29T09:52:14;20.20;31.20
79760;DHT22;69248;42.138;24.742;2023-04-29T09:54:39;20.40;31.90
79760;DHT22;69248;42.138;24.742;2023-04-29T09:57:08;20.50;30.10
79760;DHT22;69248;42.138;24.742;2023-04-29T09:59:38;20.30;29.30
79760;DHT22;69248;42.138;24.742;2023-04-29T10:02:17;20.10;29.70
79760;DHT22;69248;42.138;24.742;2023-04-29T10:04:52;20.00;31.00
79760;DHT22;69248;42.138;24.742;2023-04-29T10:07:16;20.00;31.00
79760;DHT22;69248;42.138;24.742;2023-04-29T10:09:45;20.10;29.90
79760;DHT22;69248;42.138;24.742;2023-04-29T10:12:17;20.20;30.00
79760;DHT22;69248;42.138;24.742;2023-04-29T10:15:02;20.20;29.00
79760;DHT22;69248;42.138;24.742;2023-04-29T10:20:04;20.50;27.90
79760;DHT22;69248;42.138;24.742;2023-04-29T10:22:40;20.60;25.70
79760;DHT22;69248;42.138;24.742;2023-04-29T10:25:04;20.70;26.40
79760;DHT22;69248;42.138;24.742;2023-04-29T10:27:33;20.90;26.20
79760;DHT22;69248;42.138;24.742;2023-04-29T10:30:03;21.00;26.50
79760;DHT22;69248;42.138;24.742;2023-04-29T10:32:33;21.10;26.00
79760;DHT22;69248;42.138;24.742;2023-04-29T10:35:03;21.10;26.00
79760;DHT22;69248;42.138;24.742;2023-04-29T10:37:33;21.20;26.90
79760;DHT22;69248;42.138;24.742;2023-04-29T10:40:14;21.50;26.20
79760;DHT22;69248;42.138;24.742;2023-04-29T10:42:49;21.80;26.00
79760;DHT22;69248;42.138;24.742;2023-04-29T10:45:30;22.30;25.90
79760;DHT22;69248;42.138;24.742;2023-04-29T10:48:11;22.70;25.70
79760;DHT22;69248;42.138;24.742;2023-04-29T10:53:18;23.50;23.90
79760;DHT22;69248;42.138;24.742;2023-04-29T10:55:53;23.80;22.60
79760;DHT22;69248;42.138;24.742;2023-04-29T11:01:04;24.30;23.00
79760;DHT22;69248;42.138;24.742;2023-04-29T11:03:56;24.40;22.50
79760;DHT22;69248;42.138;24.742;2023-04-29T11:09:13;24.50;22.20
79760;DHT22;69248;42.138;24.742;2023-04-29T11:11:42;24.40;22.60
79760;DHT22;69248;42.138;24.742;2023-04-29T11:14:13;24.30;23.00
79760;DHT22;69248;42.138;24.742;2023-04-29T11:16:50;24.50;22.40
79760;DHT22;69248;42.138;24.742;2023-04-29T11:19:17;24.70;22.80
79760;DHT22;69248;42.138;24.742;2023-04-29T11:21:45;24.80;21.70
79760;DHT22;69248;42.138;24.742;2023-04-29T11:24:13;24.70;21.70
79760;DHT22;69248;42.138;24.742;2023-04-29T11:26:41;24.70;21.60
79760;DHT22;69248;42.138;24.742;2023-04-29T11:29:09;24.70;21.70
79760;DHT22;69248;42.138;24.742;2023-04-29T11:31:37;24.70;21.50
79760;DHT22;69248;42.138;24.742;2023-04-29T11:34:05;24.90;21.40
79760;DHT22;69248;42.138;24.742;2023-04-29T11:36:33;25.20;21.70
79760;DHT22;69248;42.138;24.742;2023-04-29T11:39:02;25.50;21.50
79760;DHT22;69248;42.138;24.742;2023-04-29T11:41:30;25.80;20.40
79760;DHT22;69248;42.138;24.742;2023-04-29T11:43:59;25.90;20.10
79760;DHT22;69248;42.138;24.742;2023-04-29T11:46:30;26.20;20.00
79760;DHT22;69248;42.138;24.742;2023-04-29T11:48:57;26.40;19.40
79760;DHT22;69248;42.138;24.742;2023-04-29T11:51:26;26.70;19.70
79760;DHT22;69248;42.138;24.742;2023-04-29T11:53:54;27.20;19.00
79760;DHT22;69248;42.138;24.742;2023-04-29T11:56:24;27.90;18.10
79760;DHT22;69248;42.138;24.742;2023-04-29T11:58:55;28.20;17.80
79760;DHT22;69248;42.138;24.742;2023-04-29T12:01:24;28.40;17.40
79760;DHT22;69248;42.138;24.742;2023-04-29T12:03:57;28.40;17.10
79760;DHT22;69248;42.138;24.742;2023-04-29T12:06:28;28.40;16.70
79760;DHT22;69248;42.138;24.742;2023-04-29T12:08:58;28.50;16.60
79760;DHT22;69248;42.138;24.742;2023-04-29T12:11:26;28.70;16.60
79760;DHT22;69248;42.138;24.742;2023-04-29T12:13:54;29.10;16.40
79760;DHT22;69248;42.138;24.742;2023-04-29T12:16:23;29.30;16.00
79760;DHT22;69248;42.138;24.742;2023-04-29T12:18:51;29.10;15.80
79760;DHT22;69248;42.138;24.742;2023-04-29T12:21:21;29.20;16.10
79760;DHT22;69248;42.138;24.742;2023-04-29T12:23:50;29.50;16.00
79760;DHT22;69248;42.138;24.742;2023-04-29T12:26:18;29.50;15.80
79760;DHT22;69248;42.138;24.742;2023-04-29T12:28:52;29.30;15.80
79760;DHT22;69248;42.138;24.742;2023-04-29T12:31:18;29.00;16.10
79760;DHT22;69248;42.138;24.742;2023-04-29T12:33:45;28.90;16.20
79760;DHT22;69248;42.138;24.742;2023-04-29T12:36:16;28.90;17.50
79760;DHT22;69248;42.138;24.742;2023-04-29T12:38:46;29.00;18.10
79760;DHT22;69248;42.138;24.742;2023-04-29T12:41:14;29.40;17.70
79760;DHT22;69248;42.138;24.742;2023-04-29T12:43:42;29.80;16.90
79760;DHT22;69248;42.138;24.742;2023-04-29T12:46:10;30.00;16.90
79760;DHT22;69248;42.138;24.742;2023-04-29T12:48:41;29.90;16.60
79760;DHT22;69248;42.138;24.742;2023-04-29T12:51:10;29.90;16.90
79760;DHT22;69248;42.138;24.742;2023-04-29T12:53:38;30.20;16.60
79760;DHT22;69248;42.138;24.742;2023-04-29T12:56:06;30.70;16.40
79760;DHT22;69248;42.138;24.742;2023-04-29T12:58:34;31.60;15.50
79760;DHT22;69248;42.138;24.742;2023-04-29T13:01:01;32.80;14.90
79760;DHT22;69248;42.138;24.742;2023-04-29T13:03:29;33.90;14.30
79760;DHT22;69248;42.138;24.742;2023-04-29T13:05:57;34.40;13.40
79760;DHT22;69248;42.138;24.742;2023-04-29T13:08:25;34.50;13.40
79760;DHT22;69248;42.138;24.742;2023-04-29T13:10:53;34.10;13.30
79760;DHT22;69248;42.138;24.742;2023-04-29T13:13:20;33.90;14.10
79760;DHT22;69248;42.138;24.742;2023-04-29T13:15:48;33.60;14.00
79760;DHT22;69248;42.138;24.742;2023-04-29T13:18:15;33.80;14.10
79760;DHT22;69248;42.138;24.742;2023-04-29T13:20:43;34.10;14.00
79760;DHT22;69248;42.138;24.742;2023-04-29T13:23:11;33.80;14.10
79760;DHT22;69248;42.138;24.742;2023-04-29T13:25:38;33.20;14.30
79760;DHT22;69248;42.138;24.742;2023-04-29T13:28:06;32.60;14.70
79760;DHT22;69248;42.138;24.742;2023-04-29T13:30:33;32.10;15.10
79760;DHT22;69248;42.138;24.742;2023-04-29T13:33:01;31.40;15.20
79760;DHT22;69248;42.138;24.742;2023-04-29T13:35:29;30.80;15.80
79760;DHT22;69248;42.138;24.742;2023-04-29T13:37:56;30.10;16.10
79760;DHT22;69248;42.138;24.742;2023-04-29T13:40:24;29.60;17.00
79760;DHT22;69248;42.138;24.742;2023-04-29T13:42:51;29.40;17.10
79760;DHT22;69248;42.138;24.742;2023-04-29T13:45:19;29.40;17.10
79760;DHT22;69248;42.138;24.742;2023-04-29T13:47:46;29.50;16.80
79760;DHT22;69248;42.138;24.742;2023-04-29T13:50:14;30.10;16.50
79760;DHT22;69248;42.138;24.742;2023-04-29T13:52:41;30.60;16.00
79760;DHT22;69248;42.138;24.742;2023-04-29T13:55:09;30.80;16.00
79760;DHT22;69248;42.138;24.742;2023-04-29T13:57:36;30.70;15.90
79760;DHT22;69248;42.138;24.742;2023-04-29T14:00:05;30.50;15.90
79760;DHT22;69248;42.138;24.742;2023-04-29T14:02:34;30.40;16.20
79760;DHT22;69248;42.138;24.742;2023-04-29T14:05:02;30.40;16.40
79760;DHT22;69248;42.138;24.742;2023-04-29T14:07:29;31.10;15.70
79760;DHT22;69248;42.138;24.742;2023-04-29T14:09:57;31.80;15.10
79760;DHT22;69248;42.138;24.742;2023-04-29T14:12:24;32.10;15.10
79760;DHT22;69248;42.138;24.742;2023-04-29T14:14:52;32.70;14.90
79760;DHT22;69248;42.138;24.742;2023-04-29T14:17:20;33.20;14.00
79760;DHT22;69248;42.138;24.742;2023-04-29T14:19:47;33.90;13.80
79760;DHT22;69248;42.138;24.742;2023-04-29T14:22:15;34.60;13.50
79760;DHT22;69248;42.138;24.742;2023-04-29T14:24:42;35.10;13.20
79760;DHT22;69248;42.138;24.742;2023-04-29T14:27:10;35.10;13.00
79760;DHT22;69248;42.138;24.742;2023-04-29T14:29:37;34.90;12.70
79760;DHT22;69248;42.138;24.742;2023-04-29T14:32:05;34.50;13.00
79760;DHT22;69248;42.138;24.742;2023-04-29T14:34:33;33.80;13.00
79760;DHT22;69248;42.138;24.742;2023-04-29T14:37:00;33.10;13.60
79760;DHT22;69248;42.138;24.742;2023-04-29T14:39:28;32.20;14.10
79760;DHT22;69248;42.138;24.742;2023-04-29T14:41:56;31.50;14.70
79760;DHT22;69248;42.138;24.742;2023-04-29T14:44:23;30.70;15.00
79760;DHT22;69248;42.138;24.742;2023-04-29T14:46:51;29.90;15.70
79760;DHT22;69248;42.138;24.742;2023-04-29T14:49:18;29.10;16.50
79760;DHT22;69248;42.138;24.742;2023-04-29T14:51:46;28.30;16.80
79760;DHT22;69248;42.138;24.742;2023-04-29T14:54:14;27.60;17.60
79760;DHT22;69248;42.138;24.742;2023-04-29T14:56:42;27.00;18.20
79760;DHT22;69248;42.138;24.742;2023-04-29T14:59:09;26.40;19.00
79760;DHT22;69248;42.138;24.742;2023-04-29T15:01:37;26.00;18.80
79760;DHT22;69248;42.138;24.742;2023-04-29T15:04:05;25.70;19.20
79760;DHT22;69248;42.138;24.742;2023-04-29T15:06:32;25.40;19.30
79760;DHT22;69248;42.138;24.742;2023-04-29T15:09:00;25.10;19.60
79760;DHT22;69248;42.138;24.742;2023-04-29T15:11:28;24.80;20.10
79760;DHT22;69248;42.138;24.742;2023-04-29T15:13:55;24.50;20.40
79760;DHT22;69248;42.138;24.742;2023-04-29T15:16:23;24.30;20.40
79760;DHT22;69248;42.138;24.742;2023-04-29T15:18:50;24.10;20.10
79760;DHT22;69248;42.138;24.742;2023-04-29T15:21:18;24.00;20.40
79760;DHT22;69248;42.138;24.742;2023-04-29T15:23:46;23.90;20.50
79760;DHT22;69248;42.138;24.742;2023-04-29T15:26:14;23.70;21.00
79760;DHT22;69248;42.138;24.742;2023-04-29T15:28:41;23.50;20.90
79760;DHT22;69248;42.138;24.742;2023-04-29T15:31:11;23.30;21.40
79760;DHT22;69248;42.138;24.742;2023-04-29T15:33:38;23.20;21.90
79760;DHT22;69248;42.138;24.742;2023-04-29T15:36:06;23.10;22.10
79760;DHT22;69248;42.138;24.742;2023-04-29T15:38:34;23.00;22.60
79760;DHT22;69248;42.138;24.742;2023-04-29T15:41:01;22.90;22.80
79760;DHT22;69248;42.138;24.742;2023-04-29T15:43:29;22.80;22.90
79760;DHT22;69248;42.138;24.742;2023-04-29T15:45:58;22.80;23.10
79760;DHT22;69248;42.138;24.742;2023-04-29T15:48:26;22.70;23.00
79760;DHT22;69248;42.138;24.742;2023-04-29T15:50:53;22.70;23.30
79760;DHT22;69248;42.138;24.742;2023-04-29T15:53:21;22.60;23.50
79760;DHT22;69248;42.138;24.742;2023-04-29T15:55:48;22.60;23.60
79760;DHT22;69248;42.138;24.742;2023-04-29T15:58:16;22.50;23.70
79760;DHT22;69248;42.138;24.742;2023-04-29T16:00:44;22.40;23.80